Accueil
METAR-TAF:

METAR-TAF

Aéroports :

Aéroport de Milan-Linate

Milan, Italie

latitude: 45-26N, longitude: 009-17E, altitude: 107 m

Observation

Le bulletin a été fait il y a 26 minutes, à 02:20 UTC
Vent 1 kt de nord/nord-est
Température 4°C
Humidité 93%
Pression 1017 hPa
Visibilité 10 km ou plus
pas de nuages en-dessous de 1500 mètres et pas de cumulonimbus.

METAR: LIML 170220Z 02001KT CAVOK 04/03 Q1017 NOSIG

Heure: 04:46 (02:46 UTC)

Prévision

Le bulletin a été fait il y a 3 heures et 46 minutes, à 23:00 UTC
Prévision valable du 17 à 00 UTC au 17 à 24 UTC
Vent 5 kt de direction variable
Visibilité 10 km ou plus
Nuages épars à une hauteur de 4000 ft
Evoluant progressivement
du 17 à 08 UTC au 17 à 10 UTC
Vent 10 kt de sud/sud-est
Evoluant progressivement
du 17 à 16 UTC au 17 à 18 UTC
Vent 5 kt de direction variable

TAF: LIML 162300Z 1700/1724 VRB05KT 9999 SCT040 BECMG 1708/1710 15010KT BECMG 1716/1718 VRB05KT

Observations et prévisions météorologiques de plus de 4000 aéroports (messages METAR et TAF).

Les stations disponibles sont représentées par des disques jaunes et rouges sur la carte.

Passer la souris dessus pour voir le nom de la station.

Cliquer dessus pour voir les observations et prévisions météorologiques.

Pour changer de carte: cliquez sur les boutons verts avec une croix noire pour zoomer, sur le bouton vert avec un tiret pour effectuer un zoom arrière, ou sur les flèches vertes pour les cartes adjacentes.


METAR-TAF: